createdAt,value
2023-01-20T00:01:22.860Z,100583.16
2023-01-20T00:03:50.609Z,100593.50
2023-01-20T00:06:17.065Z,100586.63
2023-01-20T00:08:43.612Z,100597.25
2023-01-20T00:11:12.902Z,100599.88
2023-01-20T00:13:39.658Z,100594.84
2023-01-20T00:16:08.825Z,100598.19
2023-01-20T00:18:35.948Z,100615.59
2023-01-20T00:21:13.637Z,100600.56
2023-01-20T00:23:40.972Z,100584.31
2023-01-20T00:26:16.233Z,100608.00
2023-01-20T00:28:43.560Z,100604.03
2023-01-20T00:31:30.636Z,100609.03
2023-01-20T00:33:59.897Z,100617.03
2023-01-20T00:36:28.232Z,100616.94
2023-01-20T00:38:55.218Z,100611.75
2023-01-20T00:41:21.583Z,100606.50
2023-01-20T00:43:48.163Z,100607.78
2023-01-20T00:46:15.338Z,100621.25
2023-01-20T00:48:42.141Z,100625.66
2023-01-20T00:51:09.640Z,100623.97
2023-01-20T00:53:36.605Z,100606.84
2023-01-20T00:56:03.583Z,100632.25
2023-01-20T00:58:30.224Z,100634.22
2023-01-20T01:00:58.636Z,100639.38
2023-01-20T01:03:25.426Z,100633.19
2023-01-20T01:05:51.837Z,100640.22
2023-01-20T01:08:18.265Z,100654.31
2023-01-20T01:10:44.670Z,100650.84
2023-01-20T01:13:11.209Z,100648.59
2023-01-20T01:15:37.811Z,100668.25
2023-01-20T01:18:04.928Z,100678.78
2023-01-20T01:20:31.679Z,100672.66
2023-01-20T01:22:58.168Z,100676.22
2023-01-20T01:25:24.690Z,100654.22
2023-01-20T01:27:51.078Z,100692.03
2023-01-20T01:30:17.657Z,100678.00
2023-01-20T01:32:44.159Z,100688.66
2023-01-20T01:35:10.733Z,100687.06
2023-01-20T01:37:37.258Z,100692.41
2023-01-20T01:40:04.082Z,100685.34
2023-01-20T01:42:30.481Z,100691.56
2023-01-20T01:45:12.922Z,100693.06
2023-01-20T01:47:44.376Z,100689.50
2023-01-20T01:50:25.055Z,100701.91
2023-01-20T01:52:54.170Z,100700.22
2023-01-20T01:55:25.811Z,100703.88
2023-01-20T01:57:53.467Z,100703.88
2023-01-20T02:00:20.641Z,100698.88
2023-01-20T02:02:47.198Z,100698.69
2023-01-20T02:05:16.137Z,100719.75
2023-01-20T02:07:46.226Z,100720.50
2023-01-20T02:10:14.041Z,100723.16
2023-01-20T02:12:43.193Z,100722.63
2023-01-20T02:15:09.927Z,100717.97
2023-01-20T02:18:01.221Z,100744.97
2023-01-20T02:20:50.445Z,100735.38
2023-01-20T02:23:35.779Z,100747.22
2023-01-20T02:26:25.525Z,100738.19
2023-01-20T02:29:29.970Z,100761.22
2023-01-20T02:32:15.901Z,100771.84
2023-01-20T02:35:03.484Z,100769.22
2023-01-20T02:37:40.433Z,100760.16
2023-01-20T02:40:30.422Z,100763.00
2023-01-20T02:43:17.504Z,100778.03
2023-01-20T02:46:01.714Z,100785.00
2023-01-20T02:48:35.743Z,100778.88
2023-01-20T02:51:36.266Z,100781.25
2023-01-20T02:54:08.221Z,100783.22
2023-01-20T02:56:36.466Z,100787.53
2023-01-20T02:59:11.008Z,100781.72
2023-01-20T03:01:45.337Z,100792.91
2023-01-20T03:04:16.451Z,100791.97
2023-01-20T03:06:49.378Z,100769.25
2023-01-20T03:09:21.204Z,100781.03
2023-01-20T03:11:56.355Z,100789.78
2023-01-20T03:14:23.332Z,100799.09
2023-01-20T03:16:50.452Z,100792.44
2023-01-20T03:19:20.534Z,100801.94
2023-01-20T03:21:47.645Z,100799.50
2023-01-20T03:24:14.221Z,100810.31
2023-01-20T03:26:41.106Z,100797.44
2023-01-20T03:29:11.488Z,100769.53
2023-01-20T03:31:46.759Z,100795.44
2023-01-20T03:34:17.814Z,100814.72
2023-01-20T03:36:45.938Z,100812.94
2023-01-20T03:39:12.885Z,100809.47
2023-01-20T03:42:01.067Z,100824.91
2023-01-20T03:44:30.095Z,100824.75
2023-01-20T03:47:29.041Z,100825.28
2023-01-20T03:50:13.391Z,100829.53
2023-01-20T03:52:54.448Z,100825.13
2023-01-20T03:55:34.155Z,100832.25
2023-01-20T03:58:04.884Z,100843.66
2023-01-20T04:00:37.962Z,100827.38
2023-01-20T04:03:11.790Z,100844.25
2023-01-20T04:05:39.791Z,100844.31
2023-01-20T04:08:09.363Z,100834.22
2023-01-20T04:10:40.286Z,100846.19
2023-01-20T04:13:06.763Z,100852.06
2023-01-20T04:15:37.424Z,100858.09
2023-01-20T04:18:23.564Z,100860.97
2023-01-20T04:21:02.260Z,100850.25
2023-01-20T04:23:48.978Z,100864.44
2023-01-20T04:26:15.482Z,100871.34
2023-01-20T04:28:42.154Z,100843.66
2023-01-20T04:31:18.175Z,100878.38
2023-01-20T04:33:51.628Z,100878.00
2023-01-20T04:36:18.053Z,100879.78
2023-01-20T04:38:44.470Z,100866.41
2023-01-20T04:41:11.759Z,100864.88
2023-01-20T04:43:38.220Z,100898.91
2023-01-20T04:46:05.040Z,100908.44
2023-01-20T04:48:31.431Z,100914.38
2023-01-20T04:50:57.938Z,100877.72
2023-01-20T04:53:24.378Z,100915.22
2023-01-20T04:55:50.798Z,100908.09
2023-01-20T04:58:17.200Z,100922.03
2023-01-20T05:00:43.788Z,100917.00
2023-01-20T05:03:10.533Z,100921.06
2023-01-20T05:05:36.983Z,100916.06
2023-01-20T05:08:05.287Z,100930.56
2023-01-20T05:10:32.885Z,100916.16
2023-01-20T05:12:59.983Z,100936.50
2023-01-20T05:15:26.617Z,100924.66
2023-01-20T05:17:53.060Z,100949.50
2023-01-20T05:20:20.728Z,100937.88
2023-01-20T05:22:48.152Z,100949.13
2023-01-20T05:25:14.967Z,100951.97
2023-01-20T05:27:41.623Z,100956.88
2023-01-20T05:30:08.925Z,100950.75
2023-01-20T05:32:35.337Z,100943.31
2023-01-20T05:35:01.743Z,100953.56
2023-01-20T05:37:28.352Z,100963.09
2023-01-20T05:39:54.784Z,100948.84
2023-01-20T05:42:21.166Z,100967.41
2023-01-20T05:44:47.621Z,100974.47
2023-01-20T05:47:14.187Z,100976.25
2023-01-20T05:49:40.600Z,100959.38
2023-01-20T05:52:07.033Z,100996.06
2023-01-20T05:54:33.420Z,100982.03
2023-01-20T05:56:59.869Z,100985.78
2023-01-20T05:59:26.397Z,100991.81
2023-01-20T06:01:52.786Z,101008.31
2023-01-20T06:04:19.191Z,100997.16
2023-01-20T06:06:45.586Z,101016.97
2023-01-20T06:09:12.037Z,100998.94
2023-01-20T06:11:38.449Z,101023.66
2023-01-20T06:14:05.021Z,101021.31
2023-01-20T06:16:31.532Z,101017.53
2023-01-20T06:18:58.092Z,101033.19
2023-01-20T06:21:24.948Z,101027.16
2023-01-20T06:23:52.619Z,101035.75
2023-01-20T06:26:19.051Z,101038.28
2023-01-20T06:28:45.489Z,101039.31
2023-01-20T06:31:14.761Z,101042.63
2023-01-20T06:33:42.414Z,101051.28
2023-01-20T06:36:13.405Z,101057.41
2023-01-20T06:38:39.944Z,101065.34
2023-01-20T06:41:10.395Z,101060.16
2023-01-20T06:43:40.040Z,101057.59
2023-01-20T06:46:09.771Z,101072.94
2023-01-20T06:48:37.045Z,101074.94
2023-01-20T06:51:07.193Z,101079.28
2023-01-20T06:53:34.025Z,101081.38
2023-01-20T06:56:01.573Z,101090.56
2023-01-20T06:58:31.026Z,101090.84
2023-01-20T07:00:58.740Z,101083.28
2023-01-20T07:03:25.248Z,101091.78
2023-01-20T07:05:56.423Z,101102.41
2023-01-20T07:08:22.880Z,101100.69
2023-01-20T07:10:49.301Z,101103.19
2023-01-20T07:13:15.737Z,101098.31
2023-01-20T07:15:42.118Z,101111.84
2023-01-20T07:18:08.586Z,101117.28
2023-01-20T07:20:35.318Z,101116.53
2023-01-20T07:23:02.739Z,101123.81
2023-01-20T07:25:29.226Z,101131.16
2023-01-20T07:27:57.656Z,101119.16
2023-01-20T07:30:24.636Z,101129.00
2023-01-20T07:32:51.539Z,101114.06
2023-01-20T07:35:18.008Z,101141.25
2023-01-20T07:37:44.426Z,101148.25
2023-01-20T07:40:11.563Z,101154.44
2023-01-20T07:42:38.457Z,101134.53
2023-01-20T07:45:05.825Z,101158.69
2023-01-20T07:47:32.303Z,101156.75
2023-01-20T07:49:58.766Z,101172.66
2023-01-20T07:52:25.135Z,101175.13
2023-01-20T07:54:51.529Z,101180.56
2023-01-20T07:57:17.948Z,101175.19
2023-01-20T07:59:44.320Z,101199.50
2023-01-20T08:02:10.767Z,101198.66
2023-01-20T08:04:37.281Z,101203.94
2023-01-20T08:07:04.023Z,101215.94
2023-01-20T08:09:30.393Z,101214.16
2023-01-20T08:11:56.854Z,101222.13
2023-01-20T08:14:23.315Z,101209.31
2023-01-20T08:16:50.289Z,101233.13
2023-01-20T08:19:16.777Z,101218.50
2023-01-20T08:21:43.188Z,101221.81
2023-01-20T08:24:10.562Z,101244.00
2023-01-20T08:26:37.069Z,101234.22
2023-01-20T08:29:08.962Z,101247.34
2023-01-20T08:31:35.930Z,101241.03
2023-01-20T08:34:04.331Z,101247.75
2023-01-20T08:36:34.104Z,101239.66
2023-01-20T08:39:02.704Z,101246.41
2023-01-20T08:41:32.692Z,101246.47
2023-01-20T08:44:00.560Z,101257.03
2023-01-20T08:46:27.305Z,101262.13
2023-01-20T08:48:54.948Z,101274.19
2023-01-20T08:51:32.283Z,101275.75
2023-01-20T08:53:59.180Z,101274.81
2023-01-20T08:56:25.982Z,101253.47
2023-01-20T08:58:53.885Z,101273.69
2023-01-20T09:01:23.292Z,101287.84
2023-01-20T09:04:04.392Z,101286.63
2023-01-20T09:06:38.491Z,101295.22
2023-01-20T09:09:05.233Z,101299.31
2023-01-20T09:11:31.838Z,101268.66
2023-01-20T09:13:58.313Z,101288.06
2023-01-20T09:16:24.730Z,101281.69
2023-01-20T09:18:51.373Z,101287.63
2023-01-20T09:21:17.759Z,101285.81
2023-01-20T09:23:44.373Z,101299.63
2023-01-20T09:26:11.046Z,101317.16
2023-01-20T09:28:37.497Z,101317.81
2023-01-20T09:31:07.226Z,101321.47
2023-01-20T09:33:38.012Z,101329.59
2023-01-20T09:36:07.206Z,101336.91
2023-01-20T09:38:52.256Z,101341.44
2023-01-20T09:41:47.157Z,101339.25
2023-01-20T09:44:32.275Z,101342.84
2023-01-20T09:47:21.062Z,101341.47
2023-01-20T09:50:59.553Z,101347.13
2023-01-20T09:53:34.525Z,101349.53
2023-01-20T09:56:08.733Z,101349.44
2023-01-20T09:58:39.980Z,101333.25
2023-01-20T10:01:30.358Z,101357.22
2023-01-20T10:04:06.381Z,101344.16
2023-01-20T10:06:39.497Z,101360.91
2023-01-20T10:09:10.611Z,101364.31
2023-01-20T10:11:43.306Z,101361.16
2023-01-20T10:14:23.972Z,101367.72
2023-01-20T10:17:32.294Z,101366.75
2023-01-20T10:20:05.028Z,101373.44
2023-01-20T10:22:43.325Z,101377.69
2023-01-20T10:25:20.029Z,101368.47
2023-01-20T10:28:00.359Z,101353.28
2023-01-20T10:30:31.043Z,101364.63
2023-01-20T10:33:03.933Z,101362.25
2023-01-20T10:35:37.020Z,101360.56
2023-01-20T10:38:07.661Z,101359.47
2023-01-20T10:40:46.366Z,101358.91
2023-01-20T10:43:15.323Z,101365.66
2023-01-20T10:46:01.255Z,101372.75
2023-01-20T10:49:13.055Z,101377.41
2023-01-20T10:51:59.960Z,101376.38
2023-01-20T10:54:48.583Z,101370.16
2023-01-20T10:57:16.103Z,101396.13
2023-01-20T10:59:51.068Z,101395.19
2023-01-20T11:02:24.577Z,101384.88
2023-01-20T11:04:57.368Z,101397.16
2023-01-20T11:07:23.814Z,101396.97
2023-01-20T11:09:50.246Z,101407.84
2023-01-20T11:12:20.396Z,101405.84
2023-01-20T11:14:47.545Z,101404.50
2023-01-20T11:17:18.108Z,101393.84
2023-01-20T11:19:48.737Z,101413.31
2023-01-20T11:22:22.465Z,101412.50
2023-01-20T11:24:55.192Z,101414.81
2023-01-20T11:27:24.596Z,101426.13
2023-01-20T11:29:56.994Z,101421.69
2023-01-20T11:32:25.271Z,101428.06
2023-01-20T11:34:52.362Z,101423.41
2023-01-20T11:37:21.699Z,101442.19
2023-01-20T11:39:54.097Z,101435.75
2023-01-20T11:42:25.896Z,101433.94
2023-01-20T11:45:19.881Z,101431.50
2023-01-20T11:48:00.524Z,101421.31
2023-01-20T11:50:38.624Z,101437.56
2023-01-20T11:53:15.970Z,101444.00
2023-01-20T11:55:55.758Z,101441.59
2023-01-20T11:58:28.461Z,101442.34
2023-01-20T12:01:04.309Z,101449.22
2023-01-20T12:03:58.528Z,101449.22
2023-01-20T12:06:28.951Z,101440.94
2023-01-20T12:09:15.526Z,101452.72
2023-01-20T12:12:12.951Z,101456.56
2023-01-20T12:14:47.166Z,101457.81
2023-01-20T12:17:22.861Z,101457.03
2023-01-20T12:20:11.181Z,101459.81
2023-01-20T12:23:04.503Z,101460.09
2023-01-20T12:25:36.747Z,101469.53
2023-01-20T12:28:12.395Z,101469.81
2023-01-20T12:30:47.622Z,101470.13
2023-01-20T12:33:23.196Z,101470.25
2023-01-20T12:36:20.279Z,101470.66
2023-01-20T12:39:12.497Z,101463.66
2023-01-20T12:41:41.791Z,101474.13
2023-01-20T12:44:57.541Z,101480.53
2023-01-20T12:47:33.071Z,101473.53
2023-01-20T12:50:30.080Z,101483.09
2023-01-20T12:53:17.111Z,101487.84
2023-01-20T12:56:06.734Z,101472.63
2023-01-20T12:59:08.173Z,101490.59
2023-01-20T13:01:42.698Z,101495.88
2023-01-20T13:04:33.890Z,101496.13
2023-01-20T13:07:23.419Z,101493.63
2023-01-20T13:10:16.131Z,101499.91
2023-01-20T13:13:04.082Z,101499.41
2023-01-20T13:15:37.143Z,101508.44
2023-01-20T13:18:30.821Z,101506.72
2023-01-20T13:20:57.296Z,101514.38
2023-01-20T13:23:27.722Z,101512.91
2023-01-20T13:25:55.562Z,101515.03
2023-01-20T13:28:25.604Z,101508.06
2023-01-20T13:30:54.946Z,101527.56
2023-01-20T13:33:42.150Z,101540.56
2023-01-20T13:36:21.160Z,101530.16
2023-01-20T13:38:50.205Z,101545.81
2023-01-20T13:41:49.118Z,101550.44
2023-01-20T13:44:42.488Z,101554.19
2023-01-20T13:47:11.356Z,101560.59
2023-01-20T13:49:48.798Z,101559.63
2023-01-20T13:52:16.187Z,101559.50
2023-01-20T13:54:44.991Z,101566.31
2023-01-20T13:57:23.093Z,101578.22
2023-01-20T13:59:50.294Z,101581.44
2023-01-20T14:02:22.749Z,101581.09
2023-01-20T14:04:49.950Z,101585.16
2023-01-20T14:07:26.540Z,101580.53
2023-01-20T14:09:58.495Z,101591.63
2023-01-20T14:12:25.925Z,101594.78
2023-01-20T14:14:53.344Z,101592.00
2023-01-20T14:17:22.895Z,101581.19
2023-01-20T14:19:54.812Z,101598.03
2023-01-20T14:22:21.249Z,101619.94
2023-01-20T14:24:50.044Z,101621.22
2023-01-20T14:27:27.085Z,101631.94
2023-01-20T14:29:55.940Z,101634.75
2023-01-20T14:32:25.947Z,101634.28
2023-01-20T14:34:56.373Z,101642.88
2023-01-20T14:37:28.864Z,101656.94
2023-01-20T14:39:58.670Z,101656.78
2023-01-20T14:42:28.057Z,101670.56
2023-01-20T14:44:56.231Z,101661.38
2023-01-20T14:47:25.887Z,101662.06
2023-01-20T14:49:55.012Z,101673.91
2023-01-20T14:52:30.918Z,101682.34
2023-01-20T14:54:57.836Z,101684.53
2023-01-20T14:57:40.518Z,101687.47
2023-01-20T15:00:20.363Z,101694.09
2023-01-20T15:03:05.379Z,101695.53
2023-01-20T15:05:39.210Z,101704.78
2023-01-20T15:08:11.435Z,101706.00
2023-01-20T15:10:42.079Z,101708.19
2023-01-20T15:13:26.564Z,101715.38
2023-01-20T15:16:06.923Z,101716.88
2023-01-20T15:18:33.485Z,101719.03
2023-01-20T15:21:17.949Z,101721.84
2023-01-20T15:23:45.783Z,101722.31
2023-01-20T15:26:26.611Z,101737.44
2023-01-20T15:28:54.500Z,101738.69
2023-01-20T15:31:21.681Z,101743.44
2023-01-20T15:33:48.830Z,101746.69
2023-01-20T15:36:24.286Z,101764.34
2023-01-20T15:38:50.881Z,101760.53
2023-01-20T15:41:17.387Z,101770.28
2023-01-20T15:43:45.497Z,101780.25
2023-01-20T15:46:13.352Z,101783.09
2023-01-20T15:48:39.943Z,101768.06
2023-01-20T15:51:07.172Z,101768.72
2023-01-20T15:53:34.985Z,101797.84
2023-01-20T15:56:01.951Z,101798.22
2023-01-20T15:58:32.971Z,101773.53
2023-01-20T16:01:00.112Z,101808.09
2023-01-20T16:03:28.040Z,101804.25
2023-01-20T16:05:55.682Z,101818.25
2023-01-20T16:08:25.744Z,101818.25
2023-01-20T16:10:52.191Z,101820.38
2023-01-20T16:13:18.666Z,101813.25
2023-01-20T16:15:45.170Z,101839.22
2023-01-20T16:18:13.583Z,101844.69
2023-01-20T16:20:41.022Z,101848.34
2023-01-20T16:23:07.747Z,101846.94
2023-01-20T16:25:34.251Z,101848.16
2023-01-20T16:28:01.207Z,101857.78
2023-01-20T16:30:28.125Z,101864.25
2023-01-20T16:32:54.895Z,101866.19
2023-01-20T16:35:23.692Z,101873.41
2023-01-20T16:37:50.190Z,101860.31
2023-01-20T16:40:19.745Z,101883.69
2023-01-20T16:42:46.758Z,101881.34
2023-01-20T16:45:26.309Z,101885.81
2023-01-20T16:47:52.947Z,101892.97
2023-01-20T16:50:19.459Z,101866.81
2023-01-20T16:52:46.807Z,101898.69
2023-01-20T16:55:13.951Z,101901.47
2023-01-20T16:57:40.593Z,101899.09
2023-01-20T17:00:08.551Z,101903.44
2023-01-20T17:02:35.017Z,101904.44
2023-01-20T17:05:01.429Z,101909.88
2023-01-20T17:07:28.024Z,101914.38
2023-01-20T17:09:54.481Z,101897.50
2023-01-20T17:12:20.854Z,101924.41
2023-01-20T17:14:47.241Z,101935.91
2023-01-20T17:17:13.712Z,101936.91
2023-01-20T17:19:40.080Z,101943.97
2023-01-20T17:22:06.829Z,101947.63
2023-01-20T17:24:33.419Z,101939.34
2023-01-20T17:26:59.890Z,101960.97
2023-01-20T17:29:27.027Z,101950.78
2023-01-20T17:31:53.742Z,101962.19
2023-01-20T17:34:20.195Z,101970.13
2023-01-20T17:36:48.252Z,101970.34
2023-01-20T17:39:14.676Z,101947.00
2023-01-20T17:41:41.303Z,101974.75
2023-01-20T17:44:07.868Z,101972.31
2023-01-20T17:46:34.300Z,101990.16
2023-01-20T17:49:06.757Z,101997.16
2023-01-20T17:51:33.323Z,101998.03
2023-01-20T17:54:03.782Z,102010.38
2023-01-20T17:56:31.105Z,101995.63
2023-01-20T17:58:57.761Z,102005.88
2023-01-20T18:01:27.610Z,102014.59
2023-01-20T18:03:56.389Z,102019.81
2023-01-20T18:06:24.493Z,102026.00
2023-01-20T18:08:53.682Z,102028.66
2023-01-20T18:11:22.862Z,102026.00
2023-01-20T18:13:51.224Z,102036.50
2023-01-20T18:16:20.107Z,102042.66
2023-01-20T18:18:48.373Z,102049.72
2023-01-20T18:21:17.650Z,102037.66
2023-01-20T18:23:45.226Z,102059.38
2023-01-20T18:26:13.775Z,102063.78
2023-01-20T18:28:41.751Z,102061.09
2023-01-20T18:31:11.489Z,102056.00
2023-01-20T18:33:41.505Z,102069.00
2023-01-20T18:36:09.649Z,102058.72
2023-01-20T18:38:36.280Z,102070.78
2023-01-20T18:41:03.167Z,102051.28
2023-01-20T18:43:30.077Z,102087.63
2023-01-20T18:45:56.509Z,102060.06
2023-01-20T18:48:23.241Z,102080.84
2023-01-20T18:50:49.656Z,102092.25
2023-01-20T18:53:16.156Z,102092.50
2023-01-20T18:55:42.660Z,102090.91
2023-01-20T18:58:09.682Z,102105.72
2023-01-20T19:00:36.127Z,102104.91
2023-01-20T19:03:02.586Z,102100.56
2023-01-20T19:05:31.362Z,102112.03
2023-01-20T19:07:57.749Z,102118.25
2023-01-20T19:10:24.269Z,102104.31
2023-01-20T19:12:51.933Z,102111.44
2023-01-20T19:15:18.686Z,102115.81
2023-01-20T19:17:45.089Z,102115.88
2023-01-20T19:20:11.635Z,102129.06
2023-01-20T19:22:39.162Z,102133.50
2023-01-20T19:25:06.429Z,102137.94
2023-01-20T19:27:32.881Z,102155.66
2023-01-20T19:29:59.359Z,102137.16
2023-01-20T19:32:25.991Z,102152.94
2023-01-20T19:34:52.713Z,102150.38
2023-01-20T19:37:19.280Z,102153.78
2023-01-20T19:39:45.684Z,102160.88
2023-01-20T19:42:12.066Z,102122.97
2023-01-20T19:44:38.893Z,102148.72
2023-01-20T19:47:05.742Z,102170.22
2023-01-20T19:49:32.165Z,102164.94
2023-01-20T19:51:59.801Z,102168.38
2023-01-20T19:54:28.500Z,102180.59
2023-01-20T19:56:55.017Z,102179.00
2023-01-20T19:59:21.533Z,102162.56
2023-01-20T20:01:47.976Z,102193.69
2023-01-20T20:04:14.476Z,102198.97
2023-01-20T20:06:44.701Z,102185.22
2023-01-20T20:09:16.472Z,102183.38
2023-01-20T20:11:43.433Z,102200.81
2023-01-20T20:14:14.012Z,102205.94
2023-01-20T20:16:41.070Z,102214.53
2023-01-20T20:19:09.847Z,102218.88
2023-01-20T20:21:36.441Z,102214.53
2023-01-20T20:24:05.415Z,102211.88
2023-01-20T20:26:40.941Z,102216.97
2023-01-20T20:29:08.636Z,102218.69
2023-01-20T20:31:37.329Z,102223.13
2023-01-20T20:34:05.557Z,102203.38
2023-01-20T20:36:33.455Z,102223.97
2023-01-20T20:39:01.393Z,102224.84
2023-01-20T20:41:31.040Z,102225.69
2023-01-20T20:43:59.255Z,102233.56
2023-01-20T20:46:26.405Z,102231.03
2023-01-20T20:48:54.725Z,102257.34
2023-01-20T20:51:23.839Z,102237.97
2023-01-20T20:53:54.520Z,102250.41
2023-01-20T20:56:21.404Z,102252.19
2023-01-20T20:59:00.361Z,102261.75
2023-01-20T21:01:29.097Z,102255.69
2023-01-20T21:03:57.542Z,102265.25
2023-01-20T21:06:24.112Z,102277.63
2023-01-20T21:08:50.565Z,102266.19
2023-01-20T21:11:17.094Z,102273.97
2023-01-20T21:13:44.402Z,102272.28
2023-01-20T21:16:15.173Z,102285.31
2023-01-20T21:18:41.727Z,102264.59
2023-01-20T21:21:12.496Z,102279.13
2023-01-20T21:23:40.586Z,102280.91
2023-01-20T21:26:11.592Z,102274.91
2023-01-20T21:28:39.783Z,102283.47
2023-01-20T21:31:07.809Z,102285.13
2023-01-20T21:33:35.702Z,102287.84
2023-01-20T21:36:04.011Z,102292.31
2023-01-20T21:38:31.386Z,102301.06
2023-01-20T21:41:03.889Z,102299.28
2023-01-20T21:43:53.347Z,102296.91
2023-01-20T21:46:20.529Z,102302.19
2023-01-20T21:49:06.307Z,102294.59
2023-01-20T21:51:51.661Z,102292.13
2023-01-20T21:54:19.134Z,102325.69
2023-01-20T21:56:45.888Z,102324.84
2023-01-20T21:59:12.428Z,102329.06
2023-01-20T22:01:39.873Z,102331.84
2023-01-20T22:04:06.429Z,102318.06
2023-01-20T22:06:32.865Z,102335.47
2023-01-20T22:08:59.646Z,102331.91
2023-01-20T22:11:26.931Z,102327.75
2023-01-20T22:13:56.800Z,102305.28
2023-01-20T22:16:24.511Z,102332.78
2023-01-20T22:18:51.995Z,102339.91
2023-01-20T22:21:19.021Z,102347.03
2023-01-20T22:23:46.119Z,102338.19
2023-01-20T22:26:12.683Z,102345.41
2023-01-20T22:28:39.780Z,102358.41
2023-01-20T22:31:19.926Z,102323.78
2023-01-20T22:33:49.904Z,102343.03
2023-01-20T22:36:16.362Z,102351.28
2023-01-20T22:38:43.047Z,102347.94
2023-01-20T22:41:09.636Z,102353.22
2023-01-20T22:43:37.859Z,102342.19
2023-01-20T22:46:04.970Z,102370.03
2023-01-20T22:48:33.334Z,102363.81
2023-01-20T22:51:17.136Z,102369.81
2023-01-20T22:53:44.077Z,102377.75
2023-01-20T22:56:13.698Z,102368.25
2023-01-20T22:58:40.736Z,102370.50
2023-01-20T23:01:19.704Z,102375.78
2023-01-20T23:03:46.927Z,102365.47
2023-01-20T23:06:14.109Z,102387.03
2023-01-20T23:08:41.372Z,102385.25
2023-01-20T23:11:14.204Z,102386.88
2023-01-20T23:13:41.024Z,102396.59
2023-01-20T23:16:10.822Z,102389.53
2023-01-20T23:18:37.227Z,102400.03
2023-01-20T23:21:05.783Z,102372.53
2023-01-20T23:23:33.163Z,102399.91
2023-01-20T23:26:09.680Z,102402.50
2023-01-20T23:28:36.474Z,102405.94
2023-01-20T23:31:06.531Z,102405.81
2023-01-20T23:33:33.873Z,102403.13
2023-01-20T23:36:13.988Z,102408.25
2023-01-20T23:38:41.086Z,102408.19
2023-01-20T23:41:07.659Z,102405.66
2023-01-20T23:43:34.513Z,102413.28
2023-01-20T23:46:03.655Z,102425.53
2023-01-20T23:48:30.457Z,102416.06
2023-01-20T23:50:59.787Z,102425.59
2023-01-20T23:53:28.038Z,102439.31
2023-01-20T23:56:06.934Z,102442.78
2023-01-20T23:58:33.711Z,102449.84
